createdAt,value
2017-05-30T00:00:51.187Z,0
2017-05-30T00:03:15.774Z,0
2017-05-30T00:05:40.374Z,0
2017-05-30T00:08:04.960Z,0
2017-05-30T00:10:21.094Z,0
2017-05-30T00:12:45.779Z,0
2017-05-30T00:14:53.513Z,0
2017-05-30T00:17:09.579Z,0
2017-05-30T00:19:34.125Z,0
2017-05-30T00:21:58.727Z,0
2017-05-30T00:24:14.855Z,0
2017-05-30T00:26:39.411Z,0
2017-05-30T00:29:03.990Z,0
2017-05-30T00:33:30.078Z,0
2017-05-30T00:35:46.179Z,0
2017-05-30T00:38:10.735Z,0
2017-05-30T00:40:35.309Z,0
2017-05-30T00:42:59.909Z,0
2017-05-30T00:47:25.905Z,0
2017-05-30T00:49:50.459Z,0
2017-05-30T00:52:15.048Z,0
2017-05-30T00:54:39.646Z,0
2017-05-30T00:57:04.236Z,0
2017-05-30T00:59:28.829Z,0
2017-05-30T01:01:53.472Z,0
2017-05-30T01:04:18.026Z,0
2017-05-30T01:06:42.636Z,0
2017-05-30T01:09:07.217Z,0
2017-05-30T01:11:31.811Z,0
2017-05-30T01:13:56.405Z,0
2017-05-30T01:16:21.012Z,0
2017-05-30T01:20:55.692Z,0
2017-05-30T01:23:20.350Z,0
2017-05-30T01:25:44.938Z,0
2017-05-30T01:28:00.976Z,0
2017-05-30T01:30:17.056Z,0
2017-05-30T01:32:41.625Z,0
2017-05-30T01:35:06.212Z,0
2017-05-30T01:41:50.908Z,0
2017-05-30T01:44:15.509Z,0
2017-05-30T01:46:40.108Z,0
2017-05-30T01:50:57.741Z,0
2017-05-30T01:53:22.339Z,0
2017-05-30T01:55:46.945Z,0
2017-05-30T01:58:03.069Z,0
2017-05-30T02:00:27.627Z,0
2017-05-30T02:02:43.724Z,0
2017-05-30T02:05:08.333Z,0
2017-05-30T02:07:32.913Z,0
2017-05-30T02:09:48.996Z,0
2017-05-30T02:12:13.598Z,0
2017-05-30T02:14:38.190Z,0
2017-05-30T02:17:02.781Z,0
2017-05-30T02:19:27.374Z,0
2017-05-30T02:21:51.959Z,0
2017-05-30T02:24:16.564Z,0
2017-05-30T02:26:41.181Z,0
2017-05-30T02:29:05.754Z,0
2017-05-30T02:31:21.895Z,0
2017-05-30T02:33:46.443Z,0
2017-05-30T02:36:11.034Z,0
2017-05-30T02:38:27.169Z,0
2017-05-30T02:40:51.613Z,0
2017-05-30T02:43:16.097Z,0
2017-05-30T02:45:40.593Z,0
2017-05-30T02:48:05.083Z,0
2017-05-30T02:50:29.584Z,0
2017-05-30T02:57:06.216Z,0
2017-05-30T02:59:30.777Z,0
2017-05-30T03:01:55.269Z,0
2017-05-30T03:04:11.361Z,0
2017-05-30T03:06:27.453Z,0
2017-05-30T03:10:44.958Z,0
2017-05-30T03:13:09.496Z,0
2017-05-30T03:15:33.990Z,0
2017-05-30T03:17:58.482Z,0
2017-05-30T03:20:22.956Z,0
2017-05-30T03:22:38.939Z,0
2017-05-30T03:25:03.428Z,0
2017-05-30T03:27:19.483Z,0
2017-05-30T03:29:43.934Z,0
2017-05-30T03:32:08.429Z,0
2017-05-30T03:36:34.619Z,0
2017-05-30T03:38:59.174Z,0
2017-05-30T03:41:23.669Z,0
2017-05-30T03:43:39.697Z,0
2017-05-30T03:46:04.249Z,0
2017-05-30T03:48:20.290Z,0
2017-05-30T03:50:44.841Z,0
2017-05-30T03:53:00.981Z,0
2017-05-30T03:55:25.542Z,0
2017-05-30T03:57:50.135Z,0
2017-05-30T04:00:14.722Z,0
2017-05-30T04:02:30.827Z,5
2017-05-30T04:04:55.417Z,5
2017-05-30T04:09:29.967Z,5
2017-05-30T04:11:54.555Z,5
2017-05-30T04:16:20.656Z,5
2017-05-30T04:18:36.798Z,5
2017-05-30T04:21:01.386Z,5
2017-05-30T04:23:25.986Z,5
2017-05-30T04:25:42.127Z,5
2017-05-30T04:28:06.670Z,5
2017-05-30T04:30:31.274Z,5
2017-05-30T04:32:55.868Z,5
2017-05-30T04:35:20.450Z,5
2017-05-30T04:37:45.041Z,5
2017-05-30T04:40:09.546Z,5
2017-05-30T04:42:34.133Z,5
2017-05-30T04:47:00.742Z,5
2017-05-30T04:49:25.280Z,5
2017-05-30T04:51:49.874Z,5
2017-05-30T04:54:14.468Z,10
2017-05-30T04:56:38.969Z,10
2017-05-30T04:59:03.561Z,10
2017-05-30T05:01:28.149Z,10
2017-05-30T05:03:35.786Z,10
2017-05-30T05:05:51.882Z,10
2017-05-30T05:08:16.441Z,10
2017-05-30T05:10:32.561Z,10
2017-05-30T05:12:57.008Z,10
2017-05-30T05:17:23.098Z,10
2017-05-30T05:19:47.658Z,10
2017-05-30T05:22:03.685Z,10
2017-05-30T05:24:28.235Z,10
2017-05-30T05:26:52.728Z,10
2017-05-30T05:29:17.213Z,10
2017-05-30T05:31:41.725Z,10
2017-05-30T05:33:57.809Z,10
2017-05-30T05:36:13.786Z,10
2017-05-30T05:38:29.842Z,15
2017-05-30T05:40:54.382Z,15
2017-05-30T05:43:01.938Z,15
2017-05-30T05:45:17.973Z,15
2017-05-30T05:47:33.995Z,15
2017-05-30T05:49:58.562Z,20
2017-05-30T05:52:23.045Z,20
2017-05-30T05:54:39.068Z,20
2017-05-30T05:57:03.546Z,15
2017-05-30T05:59:19.630Z,15
2017-05-30T06:01:44.126Z,15
2017-05-30T06:04:08.628Z,15
2017-05-30T06:06:24.720Z,15
2017-05-30T06:08:40.741Z,15
2017-05-30T06:10:56.855Z,15
2017-05-30T06:13:21.391Z,15
2017-05-30T06:15:46.905Z,15
2017-05-30T06:18:11.401Z,20
2017-05-30T06:20:35.889Z,20
2017-05-30T06:23:00.387Z,20
2017-05-30T06:25:24.975Z,20
2017-05-30T06:27:49.405Z,25
2017-05-30T06:30:13.963Z,25
2017-05-30T06:32:38.445Z,25
2017-05-30T06:35:02.930Z,25
2017-05-30T06:37:27.414Z,30
2017-05-30T06:39:51.873Z,30
2017-05-30T06:46:19.412Z,30
2017-05-30T06:48:43.908Z,30
2017-05-30T06:53:09.941Z,35
2017-05-30T06:55:25.978Z,35
2017-05-30T06:57:42.009Z,35
2017-05-30T07:00:06.470Z,40
2017-05-30T07:02:30.929Z,40
2017-05-30T07:04:55.373Z,40
2017-05-30T07:07:19.827Z,45
2017-05-30T07:09:35.760Z,45
2017-05-30T07:12:00.213Z,45
2017-05-30T07:14:24.661Z,50
2017-05-30T07:16:49.137Z,55
2017-05-30T07:19:13.607Z,55
2017-05-30T07:21:39.097Z,65
2017-05-30T07:23:55.118Z,75
2017-05-30T07:28:29.707Z,100
2017-05-30T07:30:54.276Z,195
2017-05-30T07:33:10.357Z,235
2017-05-30T07:35:34.951Z,85
2017-05-30T07:37:59.511Z,75
2017-05-30T07:40:15.603Z,90
2017-05-30T07:42:31.773Z,95
2017-05-30T07:46:58.468Z,65
2017-05-30T07:49:23.156Z,65
2017-05-30T07:51:47.836Z,60
2017-05-30T07:54:04.030Z,65
2017-05-30T07:56:28.713Z,75
2017-05-30T07:58:53.406Z,95
2017-05-30T08:01:18.106Z,90
2017-05-30T08:03:42.783Z,95
2017-05-30T08:06:07.493Z,105
2017-05-30T08:08:32.196Z,110
2017-05-30T08:10:56.903Z,105
2017-05-30T08:13:21.629Z,105
2017-05-30T08:15:46.363Z,110
2017-05-30T08:18:02.617Z,135
2017-05-30T08:20:27.333Z,190
2017-05-30T08:22:52.124Z,150
2017-05-30T08:25:16.936Z,140
2017-05-30T08:27:41.750Z,225
2017-05-30T08:29:58.107Z,120
2017-05-30T08:32:14.454Z,115
2017-05-30T08:34:39.281Z,110
2017-05-30T08:37:04.075Z,110
2017-05-30T08:39:28.933Z,110
2017-05-30T08:41:53.772Z,115
2017-05-30T08:44:10.143Z,120
2017-05-30T08:46:34.989Z,140
2017-05-30T08:48:59.840Z,140
2017-05-30T08:51:24.700Z,155
2017-05-30T08:55:51.278Z,205
2017-05-30T08:58:16.280Z,200
2017-05-30T09:00:32.801Z,200
2017-05-30T09:02:57.818Z,190
2017-05-30T09:05:22.818Z,180
2017-05-30T09:07:47.890Z,165
2017-05-30T09:10:04.428Z,165
2017-05-30T09:12:29.439Z,170
2017-05-30T09:14:54.499Z,175
2017-05-30T09:17:19.557Z,165
2017-05-30T09:19:44.616Z,160
2017-05-30T09:22:01.163Z,175
2017-05-30T09:24:26.240Z,160
2017-05-30T09:26:51.305Z,140
2017-05-30T09:29:07.830Z,130
2017-05-30T09:31:32.916Z,135
2017-05-30T09:33:49.475Z,135
2017-05-30T09:38:24.827Z,235
2017-05-30T09:40:41.446Z,270
2017-05-30T09:44:59.773Z,195
2017-05-30T09:49:10.923Z,190
2017-05-30T09:51:36.217Z,255
2017-05-30T09:54:01.526Z,240
2017-05-30T09:56:18.351Z,230
2017-05-30T09:58:43.725Z,215
2017-05-30T10:01:09.114Z,150
2017-05-30T10:03:34.460Z,190
2017-05-30T10:08:10.174Z,200
2017-05-30T10:10:35.532Z,185
2017-05-30T10:13:00.865Z,180
2017-05-30T10:15:26.215Z,175
2017-05-30T10:17:51.532Z,150
2017-05-30T10:20:16.856Z,175
2017-05-30T10:22:42.181Z,145
2017-05-30T10:25:07.483Z,170
2017-05-30T10:27:24.271Z,155
2017-05-30T10:29:49.559Z,165
2017-05-30T10:32:06.332Z,160
2017-05-30T10:34:31.605Z,145
2017-05-30T10:36:48.345Z,155
2017-05-30T10:39:13.648Z,160
2017-05-30T10:41:38.949Z,165
2017-05-30T10:44:04.230Z,150
2017-05-30T10:46:20.999Z,170
2017-05-30T10:50:47.994Z,165
2017-05-30T10:53:13.317Z,165
2017-05-30T10:55:38.606Z,145
2017-05-30T10:58:03.891Z,140
2017-05-30T11:02:40.032Z,115
2017-05-30T11:05:05.378Z,115
2017-05-30T11:07:30.657Z,135
2017-05-30T11:09:55.962Z,135
2017-05-30T11:12:21.276Z,130
2017-05-30T11:14:46.571Z,160
2017-05-30T11:17:11.854Z,135
2017-05-30T11:19:37.130Z,130
2017-05-30T11:22:02.388Z,135
2017-05-30T11:24:19.139Z,130
2017-05-30T11:26:44.443Z,140
2017-05-30T11:29:09.731Z,165
2017-05-30T11:31:35.006Z,145
2017-05-30T11:34:00.307Z,145
2017-05-30T11:36:17.140Z,175
2017-05-30T11:38:42.500Z,145
2017-05-30T11:41:07.864Z,135
2017-05-30T11:45:43.478Z,150
2017-05-30T11:50:02.083Z,120
2017-05-30T11:52:27.459Z,120
2017-05-30T11:54:52.845Z,140
2017-05-30T11:57:18.239Z,125
2017-05-30T11:59:43.657Z,120
2017-05-30T12:02:09.051Z,115
2017-05-30T12:04:34.404Z,115
2017-05-30T12:06:59.804Z,110
2017-05-30T12:09:16.692Z,100
2017-05-30T12:11:42.015Z,90
2017-05-30T12:14:07.325Z,85
2017-05-30T12:16:07.088Z,80
2017-05-30T12:18:32.376Z,75
2017-05-30T12:20:57.571Z,75
2017-05-30T12:23:14.286Z,75
2017-05-30T12:25:39.463Z,80
2017-05-30T12:28:04.671Z,90
2017-05-30T12:30:29.882Z,95
2017-05-30T12:32:46.555Z,105
2017-05-30T12:35:11.680Z,105
2017-05-30T12:39:38.513Z,110
2017-05-30T12:41:55.224Z,115
2017-05-30T12:44:11.937Z,115
2017-05-30T12:48:38.785Z,130
2017-05-30T12:51:04.050Z,125
2017-05-30T12:53:29.273Z,115
2017-05-30T12:55:54.505Z,105
2017-05-30T12:58:19.764Z,95
2017-05-30T13:00:45.013Z,90
2017-05-30T13:05:03.390Z,95
2017-05-30T13:07:28.628Z,85
2017-05-30T13:09:53.782Z,75
2017-05-30T13:12:18.976Z,80
2017-05-30T13:14:44.124Z,95
2017-05-30T13:19:10.849Z,100
2017-05-30T13:21:36.001Z,90
2017-05-30T13:24:01.068Z,90
2017-05-30T13:26:26.089Z,85
2017-05-30T13:28:51.083Z,75
2017-05-30T13:30:59.093Z,80
2017-05-30T13:33:24.098Z,80
2017-05-30T13:35:49.096Z,65
2017-05-30T13:38:14.063Z,55
2017-05-30T13:40:22.072Z,55
2017-05-30T13:42:46.996Z,55
2017-05-30T13:45:11.898Z,50
2017-05-30T13:47:36.768Z,45
2017-05-30T13:52:03.155Z,45
2017-05-30T13:54:27.986Z,40
2017-05-30T13:56:52.748Z,40
2017-05-30T13:59:17.565Z,35
2017-05-30T14:01:42.341Z,35
2017-05-30T14:03:58.632Z,30
2017-05-30T14:06:23.408Z,20
2017-05-30T14:08:48.119Z,25
2017-05-30T14:11:12.810Z,40
2017-05-30T14:13:37.554Z,60
2017-05-30T14:16:02.299Z,80
2017-05-30T14:18:27.057Z,85
2017-05-30T14:20:51.797Z,60
2017-05-30T14:23:16.541Z,45
2017-05-30T14:25:32.802Z,35
2017-05-30T14:27:57.561Z,35
2017-05-30T14:32:24.341Z,35
2017-05-30T14:34:49.110Z,35
2017-05-30T14:37:13.808Z,35
2017-05-30T14:39:30.064Z,30
2017-05-30T14:41:54.803Z,30
2017-05-30T14:44:19.533Z,25
2017-05-30T14:46:44.194Z,25
2017-05-30T14:51:19.058Z,25
2017-05-30T14:53:43.769Z,25
2017-05-30T14:56:08.498Z,25
2017-05-30T14:58:33.203Z,25
2017-05-30T15:00:57.891Z,25
2017-05-30T15:03:22.587Z,25
2017-05-30T15:05:47.242Z,20
2017-05-30T15:08:11.941Z,20
2017-05-30T15:10:28.188Z,15
2017-05-30T15:12:52.895Z,15
2017-05-30T15:15:17.558Z,15
2017-05-30T15:17:33.742Z,10
2017-05-30T15:21:59.936Z,10
2017-05-30T15:24:16.131Z,10
2017-05-30T15:26:40.762Z,10
2017-05-30T15:29:05.391Z,10
2017-05-30T15:31:29.973Z,10
2017-05-30T15:33:54.602Z,10
2017-05-30T15:36:19.229Z,10
2017-05-30T15:38:43.860Z,10
2017-05-30T15:41:00.008Z,10
2017-05-30T15:43:24.628Z,10
2017-05-30T15:45:40.789Z,10
2017-05-30T15:48:05.356Z,5
2017-05-30T15:50:21.487Z,5
2017-05-30T15:52:46.077Z,5
2017-05-30T15:55:02.153Z,5
2017-05-30T15:57:26.733Z,10
2017-05-30T15:59:51.296Z,10
2017-05-30T16:02:07.431Z,15
2017-05-30T16:04:23.507Z,20
2017-05-30T16:06:48.057Z,25
2017-05-30T16:09:12.619Z,30
2017-05-30T16:11:37.196Z,35
2017-05-30T16:14:01.783Z,45
2017-05-30T16:16:26.356Z,45
2017-05-30T16:18:50.909Z,45
2017-05-30T16:21:15.513Z,45
2017-05-30T16:23:40.156Z,50
2017-05-30T16:26:04.784Z,50
2017-05-30T16:30:39.520Z,60
2017-05-30T16:35:01.535Z,70
2017-05-30T16:37:26.239Z,70
2017-05-30T16:39:50.932Z,70
2017-05-30T16:42:15.625Z,65
2017-05-30T16:44:40.274Z,70
2017-05-30T16:47:04.934Z,75
2017-05-30T16:49:21.124Z,75
2017-05-30T16:51:45.841Z,75
2017-05-30T16:54:02.080Z,80
2017-05-30T16:56:18.354Z,80
2017-05-30T16:58:43.081Z,75
2017-05-30T17:01:07.789Z,75
2017-05-30T17:03:32.522Z,70
2017-05-30T17:10:09.076Z,65
2017-05-30T17:12:33.882Z,60
2017-05-30T17:14:58.663Z,60
2017-05-30T17:17:23.440Z,60
2017-05-30T17:19:48.163Z,60
2017-05-30T17:22:04.370Z,60
2017-05-30T17:24:20.628Z,55
2017-05-30T17:26:45.376Z,55
2017-05-30T17:29:10.143Z,55
2017-05-30T17:31:34.899Z,55
2017-05-30T17:33:51.169Z,55
2017-05-30T17:36:15.890Z,55
2017-05-30T17:38:40.571Z,50
2017-05-30T17:41:05.241Z,50
2017-05-30T17:43:29.963Z,50
2017-05-30T17:45:46.193Z,45
2017-05-30T17:49:47.530Z,50
2017-05-30T17:52:12.251Z,45
2017-05-30T17:54:36.952Z,40
2017-05-30T17:57:01.604Z,40
2017-05-30T17:59:26.248Z,40
2017-05-30T18:01:50.944Z,40
2017-05-30T18:04:15.602Z,40
2017-05-30T18:06:31.820Z,35
2017-05-30T18:08:56.421Z,35
2017-05-30T18:11:21.040Z,35
2017-05-30T18:13:45.687Z,35
2017-05-30T18:16:10.279Z,30
2017-05-30T18:18:34.880Z,30
2017-05-30T18:23:00.997Z,25
2017-05-30T18:25:25.640Z,25
2017-05-30T18:27:50.200Z,25
2017-05-30T18:30:14.805Z,25
2017-05-30T18:32:39.376Z,20
2017-05-30T18:35:03.982Z,20
2017-05-30T18:39:30.110Z,15
2017-05-30T18:41:37.774Z,15
2017-05-30T18:45:55.466Z,15
2017-05-30T18:48:20.014Z,10
2017-05-30T18:52:54.614Z,10
2017-05-30T18:55:10.764Z,10
2017-05-30T18:57:35.307Z,10
2017-05-30T18:59:51.389Z,5
2017-05-30T19:02:07.431Z,5
2017-05-30T19:04:31.959Z,5
2017-05-30T19:06:48.031Z,5
2017-05-30T19:09:12.624Z,5
2017-05-30T19:11:37.227Z,0
2017-05-30T19:14:01.814Z,0
2017-05-30T19:18:19.966Z,0
2017-05-30T19:20:45.398Z,0
2017-05-30T19:23:09.949Z,0
2017-05-30T19:25:34.470Z,0
2017-05-30T19:27:59.046Z,0
2017-05-30T19:30:23.576Z,0
2017-05-30T19:32:48.121Z,0
2017-05-30T19:35:12.692Z,0
2017-05-30T19:37:37.241Z,0
2017-05-30T19:40:01.791Z,0
2017-05-30T19:42:17.885Z,0
2017-05-30T19:44:43.409Z,0
2017-05-30T19:51:30.052Z,0
2017-05-30T19:53:54.608Z,0
2017-05-30T19:56:19.084Z,0
2017-05-30T19:58:44.590Z,0
2017-05-30T20:00:52.153Z,0
2017-05-30T20:03:18.657Z,0
2017-05-30T20:05:43.149Z,0
2017-05-30T20:08:07.545Z,0
2017-05-30T20:10:15.146Z,0
2017-05-30T20:12:39.625Z,0
2017-05-30T20:14:55.666Z,0
2017-05-30T20:17:21.150Z,0
2017-05-30T20:19:38.168Z,0
2017-05-30T20:23:38.585Z,0
2017-05-30T20:26:03.055Z,0
2017-05-30T20:28:27.563Z,0
2017-05-30T20:32:45.069Z,0
2017-05-30T20:37:11.098Z,0
2017-05-30T20:39:35.553Z,0
2017-05-30T20:42:00.012Z,0
2017-05-30T20:44:24.454Z,0
2017-05-30T20:46:40.431Z,0
2017-05-30T20:49:04.857Z,0
2017-05-30T20:51:20.803Z,0
2017-05-30T20:53:45.218Z,0
2017-05-30T20:56:09.623Z,0
2017-05-30T20:58:34.045Z,0
2017-05-30T21:00:58.442Z,0
2017-05-30T21:03:22.862Z,0
2017-05-30T21:05:47.371Z,0
2017-05-30T21:08:11.839Z,0
2017-05-30T21:10:36.353Z,0
2017-05-30T21:15:02.342Z,0
2017-05-30T21:17:26.763Z,0
2017-05-30T21:19:51.146Z,0
2017-05-30T21:22:15.545Z,0
2017-05-30T21:24:31.539Z,0
2017-05-30T21:26:55.927Z,0
2017-05-30T21:29:20.309Z,0
2017-05-30T21:31:44.712Z,0
2017-05-30T21:34:09.084Z,0
2017-05-30T21:36:33.481Z,0
2017-05-30T21:38:57.858Z,0
2017-05-30T21:41:22.261Z,0
2017-05-30T21:43:46.652Z,0
2017-05-30T21:46:11.050Z,0
2017-05-30T21:48:35.417Z,0
2017-05-30T21:50:59.828Z,0
2017-05-30T21:53:24.195Z,0
2017-05-30T21:55:40.136Z,0
2017-05-30T21:58:04.482Z,0
2017-05-30T22:00:28.866Z,0
2017-05-30T22:02:44.743Z,0
2017-05-30T22:05:09.032Z,0
2017-05-30T22:07:33.418Z,0
2017-05-30T22:09:57.815Z,0
2017-05-30T22:12:22.204Z,0
2017-05-30T22:16:48.034Z,0
2017-05-30T22:19:12.426Z,0
2017-05-30T22:21:36.806Z,0
2017-05-30T22:23:52.760Z,0
2017-05-30T22:26:17.074Z,0
2017-05-30T22:28:41.371Z,0
2017-05-30T22:31:05.669Z,0
2017-05-30T22:33:30.057Z,0
2017-05-30T22:35:54.435Z,0
2017-05-30T22:38:18.716Z,0
2017-05-30T22:40:34.558Z,0
2017-05-30T22:42:58.913Z,0
2017-05-30T22:45:23.284Z,0
2017-05-30T22:47:47.581Z,0
2017-05-30T22:50:11.876Z,0
2017-05-30T22:52:36.157Z,0
2017-05-30T22:55:00.455Z,0
2017-05-30T22:57:16.329Z,0
2017-05-30T22:59:40.612Z,0
2017-05-30T23:02:04.897Z,0
2017-05-30T23:04:29.170Z,0
2017-05-30T23:06:53.472Z,0
2017-05-30T23:09:17.755Z,0
2017-05-30T23:11:42.025Z,0
2017-05-30T23:16:07.774Z,0
2017-05-30T23:18:32.052Z,0
2017-05-30T23:20:56.357Z,0
2017-05-30T23:23:20.634Z,0
2017-05-30T23:25:44.931Z,0
2017-05-30T23:28:09.219Z,0
2017-05-30T23:30:33.506Z,0
2017-05-30T23:32:49.362Z,0
2017-05-30T23:35:13.679Z,0
2017-05-30T23:37:29.522Z,0
2017-05-30T23:39:45.361Z,0
2017-05-30T23:42:01.199Z,0
2017-05-30T23:44:25.524Z,0
2017-05-30T23:46:49.803Z,0
2017-05-30T23:48:57.197Z,0
2017-05-30T23:51:21.499Z,0
2017-05-30T23:53:45.774Z,0
2017-05-30T23:56:10.064Z,0
2017-05-30T23:58:34.362Z,0
